createdAt,value
2018-04-28T00:02:30.343Z,3.67
2018-04-28T00:04:57.931Z,3.33
2018-04-28T00:07:25.447Z,3.30
2018-04-28T00:09:52.943Z,3.50
2018-04-28T00:12:20.439Z,4.57
2018-04-28T00:14:47.941Z,3.93
2018-04-28T00:17:16.161Z,4.30
2018-04-28T00:19:58.552Z,3.50
2018-04-28T00:22:29.899Z,3.17
2018-04-28T00:24:58.178Z,4.13
2018-04-28T00:27:26.444Z,3.90
2018-04-28T00:32:53.672Z,4.77
2018-04-28T00:35:28.927Z,4.40
2018-04-28T00:37:56.540Z,4.90
2018-04-28T00:40:32.799Z,3.30
2018-04-28T00:43:03.320Z,3.57
2018-04-28T00:45:37.468Z,3.60
2018-04-28T00:48:07.480Z,4.07
2018-04-28T00:53:32.751Z,4.27
2018-04-28T00:56:08.920Z,5.87
2018-04-28T01:01:35.056Z,4.50
2018-04-28T01:04:11.380Z,4.40
2018-04-28T01:06:39.086Z,4.80
2018-04-28T01:09:06.718Z,3.93
2018-04-28T01:11:35.042Z,4.40
2018-04-28T01:14:12.348Z,4.10
2018-04-28T01:16:52.670Z,3.40
2018-04-28T01:19:28.838Z,4.00
2018-04-28T01:22:01.071Z,3.43
2018-04-28T01:24:40.268Z,3.80
2018-04-28T01:27:30.280Z,3.97
2018-04-28T01:30:06.558Z,3.53
2018-04-28T01:35:38.391Z,3.73
2018-04-28T01:38:06.799Z,4.57
2018-04-28T01:40:37.063Z,3.63
2018-04-28T01:43:11.883Z,3.90
2018-04-28T01:45:57.606Z,4.17
2018-04-28T01:48:25.231Z,3.77
2018-04-28T01:51:10.571Z,4.70
2018-04-28T01:53:44.307Z,4.37
2018-04-28T01:56:31.968Z,4.33
2018-04-28T01:58:59.472Z,4.50
2018-04-28T02:01:29.268Z,4.40
2018-04-28T02:04:15.469Z,3.80
2018-04-28T02:06:48.809Z,4.50
2018-04-28T02:09:20.861Z,4.47
2018-04-28T02:11:52.118Z,3.87
2018-04-28T02:14:25.371Z,4.63
2018-04-28T02:19:59.750Z,4.50
2018-04-28T02:22:32.069Z,3.60
2018-04-28T02:34:28.061Z,5.20
2018-04-28T02:39:57.128Z,4.60
2018-04-28T02:45:30.162Z,4.27
2018-04-28T02:47:58.552Z,4.37
2018-04-28T02:50:29.874Z,3.67
2018-04-28T02:53:03.239Z,4.73
2018-04-28T02:58:31.139Z,3.20
2018-04-28T03:01:08.378Z,4.27
2018-04-28T03:03:40.440Z,4.63
2018-04-28T03:06:10.811Z,4.67
2018-04-28T03:08:42.164Z,4.47
2018-04-28T03:11:10.432Z,5.53
2018-04-28T03:13:52.826Z,17.63
2018-04-28T03:16:26.813Z,7.83
2018-04-28T03:18:56.040Z,6.20
2018-04-28T03:21:23.574Z,6.60
2018-04-28T03:23:52.904Z,5.63
2018-04-28T03:26:22.923Z,4.70
2018-04-28T03:28:51.253Z,5.17
2018-04-28T03:31:31.040Z,5.00
2018-04-28T03:37:24.965Z,3.93
2018-04-28T03:40:04.196Z,3.40
2018-04-28T03:45:37.404Z,4.10
2018-04-28T03:48:29.589Z,5.20
2018-04-28T03:53:57.968Z,5.50
2018-04-28T03:56:26.268Z,5.40
2018-04-28T03:59:05.549Z,4.43
2018-04-28T04:01:47.896Z,3.53
2018-04-28T04:04:24.181Z,4.50
2018-04-28T04:06:56.182Z,5.30
2018-04-28T04:12:42.394Z,7.00
2018-04-28T04:15:19.383Z,6.20
2018-04-28T04:17:54.385Z,4.70
2018-04-28T04:20:32.745Z,5.17
2018-04-28T04:23:09.888Z,5.00
2018-04-28T04:28:40.298Z,7.10
2018-04-28T04:31:13.672Z,5.97
2018-04-28T04:33:51.150Z,5.30
2018-04-28T04:36:29.520Z,4.93
2018-04-28T04:42:25.490Z,4.53
2018-04-28T04:45:01.647Z,4.57
2018-04-28T04:47:41.122Z,6.27
2018-04-28T04:50:18.162Z,9.33
2018-04-28T04:56:23.341Z,7.17
2018-04-28T04:59:00.465Z,7.53
2018-04-28T05:01:38.708Z,5.87
2018-04-28T05:04:07.153Z,6.20
2018-04-28T05:09:52.161Z,5.27
2018-04-28T05:12:30.564Z,5.77
2018-04-28T05:15:09.697Z,7.10
2018-04-28T05:17:50.923Z,4.80
2018-04-28T05:23:22.915Z,6.10
2018-04-28T05:26:03.872Z,6.73
2018-04-28T05:28:52.433Z,5.07
2018-04-28T05:31:31.695Z,5.23
2018-04-28T05:34:22.833Z,4.37
2018-04-28T05:37:02.201Z,6.77
2018-04-28T05:39:41.335Z,5.90
2018-04-28T05:45:17.528Z,5.13
2018-04-28T05:47:53.937Z,6.17
2018-04-28T05:53:34.770Z,4.67
2018-04-28T05:56:11.732Z,5.10
2018-04-28T05:59:06.824Z,6.17
2018-04-28T06:01:38.137Z,5.27
2018-04-28T06:07:23.363Z,4.57
2018-04-28T06:13:21.268Z,4.80
2018-04-28T06:16:00.525Z,6.17
2018-04-28T06:18:39.688Z,5.00
2018-04-28T06:21:07.301Z,6.40
2018-04-28T06:23:34.897Z,6.83
2018-04-28T06:26:02.560Z,7.00
2018-04-28T06:28:30.131Z,6.43
2018-04-28T06:30:57.720Z,6.07
2018-04-28T06:33:25.229Z,6.23
2018-04-28T06:35:52.731Z,6.00
2018-04-28T06:38:20.291Z,6.53
2018-04-28T06:40:47.795Z,5.53
2018-04-28T06:43:15.295Z,4.77
2018-04-28T06:45:42.818Z,5.63
2018-04-28T06:48:10.329Z,4.90
2018-04-28T06:50:37.849Z,5.23
2018-04-28T06:53:05.372Z,5.60
2018-04-28T06:55:32.881Z,4.87
2018-04-28T06:58:00.510Z,4.70
2018-04-28T07:00:28.922Z,4.90
2018-04-28T07:02:56.555Z,6.40
2018-04-28T07:05:24.187Z,5.30
2018-04-28T07:07:51.874Z,4.90
2018-04-28T07:10:19.492Z,5.10
2018-04-28T07:15:20.869Z,5.03
2018-04-28T07:17:48.507Z,5.63
2018-04-28T07:20:16.163Z,5.10
2018-04-28T07:22:43.695Z,3.80
2018-04-28T07:25:11.244Z,4.57
2018-04-28T07:27:38.817Z,5.40
2018-04-28T07:30:06.374Z,4.10
2018-04-28T07:32:33.913Z,4.80
2018-04-28T07:35:01.480Z,5.13
2018-04-28T07:37:29.034Z,4.80
2018-04-28T07:39:56.605Z,5.27
2018-04-28T07:42:24.348Z,4.60
2018-04-28T07:44:51.934Z,5.10
2018-04-28T07:47:19.539Z,4.90
2018-04-28T07:49:47.198Z,4.20
2018-04-28T07:52:14.757Z,5.57
2018-04-28T07:54:42.544Z,5.07
2018-04-28T07:57:10.222Z,4.70
2018-04-28T07:59:37.816Z,5.00
2018-04-28T08:02:05.436Z,6.83
2018-04-28T08:04:33.038Z,5.77
2018-04-28T08:07:00.706Z,5.77
2018-04-28T08:09:28.319Z,6.10
2018-04-28T08:11:55.883Z,5.30
2018-04-28T08:14:23.442Z,6.10
2018-04-28T08:16:50.977Z,5.17
2018-04-28T08:19:18.565Z,5.70
2018-04-28T08:21:46.080Z,5.33
2018-04-28T08:24:13.678Z,5.17
2018-04-28T08:26:41.206Z,4.70
2018-04-28T08:29:08.736Z,5.93
2018-04-28T08:31:36.349Z,4.47
2018-04-28T08:34:03.992Z,4.40
2018-04-28T08:36:46.953Z,5.17
2018-04-28T08:39:14.527Z,5.70
2018-04-28T08:41:46.475Z,4.10
2018-04-28T08:44:14.136Z,4.80
2018-04-28T08:46:41.763Z,5.70
2018-04-28T08:49:09.447Z,5.07
2018-04-28T08:51:36.965Z,6.47
2018-04-28T08:54:04.659Z,4.70
2018-04-28T08:56:32.364Z,5.37
2018-04-28T08:58:59.999Z,3.97
2018-04-28T09:01:28.265Z,5.20
2018-04-28T09:03:55.899Z,6.07
2018-04-28T09:06:23.565Z,4.97
2018-04-28T09:08:51.310Z,5.47
2018-04-28T09:11:18.933Z,5.20
2018-04-28T09:13:46.586Z,5.37
2018-04-28T09:16:14.254Z,4.57
2018-04-28T09:18:41.961Z,5.23
2018-04-28T09:21:09.613Z,4.00
2018-04-28T09:23:37.214Z,4.53
2018-04-28T09:26:04.791Z,5.33
2018-04-28T09:28:32.472Z,4.60
2018-04-28T09:31:00.063Z,5.30
2018-04-28T09:33:27.628Z,4.80
2018-04-28T09:35:55.256Z,4.90
2018-04-28T09:38:22.957Z,5.33
2018-04-28T09:40:50.490Z,4.33
2018-04-28T09:43:18.024Z,4.60
2018-04-28T09:45:45.551Z,4.60
2018-04-28T09:48:13.058Z,4.20
2018-04-28T09:50:40.614Z,5.13
2018-04-28T09:53:08.150Z,4.87
2018-04-28T09:55:35.667Z,4.83
2018-04-28T09:58:06.282Z,4.40
2018-04-28T10:00:35.533Z,4.30
2018-04-28T10:03:05.982Z,4.50
2018-04-28T10:05:33.665Z,4.83
2018-04-28T10:08:01.248Z,4.73
2018-04-28T10:10:29.284Z,4.73
2018-04-28T10:12:56.907Z,4.03
2018-04-28T10:15:24.483Z,4.43
2018-04-28T10:17:56.876Z,4.30
2018-04-28T10:20:24.591Z,4.13
2018-04-28T10:22:52.082Z,5.20
2018-04-28T10:25:19.679Z,4.63
2018-04-28T10:27:47.312Z,4.70
2018-04-28T10:30:14.871Z,4.20
2018-04-28T10:32:42.437Z,5.40
2018-04-28T10:35:10.040Z,4.67
2018-04-28T10:37:37.684Z,5.10
2018-04-28T10:40:12.172Z,4.90
2018-04-28T10:42:39.764Z,4.13
2018-04-28T10:45:07.362Z,4.50
2018-04-28T10:47:34.986Z,4.20
2018-04-28T10:50:02.496Z,4.67
2018-04-28T10:52:30.203Z,4.40
2018-04-28T10:54:57.769Z,4.10
2018-04-28T10:57:25.340Z,4.13
2018-04-28T10:59:52.972Z,4.10
2018-04-28T11:02:20.608Z,5.00
2018-04-28T11:04:48.173Z,3.93
2018-04-28T11:07:15.759Z,5.07
2018-04-28T11:09:44.534Z,3.93
2018-04-28T11:12:15.824Z,3.80
2018-04-28T11:14:44.810Z,3.67
2018-04-28T11:17:12.388Z,3.30
2018-04-28T11:19:42.720Z,3.23
2018-04-28T11:22:10.260Z,3.07
2018-04-28T11:24:37.859Z,3.37
2018-04-28T11:27:05.503Z,3.83
2018-04-28T11:29:33.056Z,4.50
2018-04-28T11:32:00.760Z,3.37
2018-04-28T11:34:30.311Z,3.53
2018-04-28T11:36:57.880Z,3.80
2018-04-28T11:39:25.462Z,3.60
2018-04-28T11:41:53.033Z,3.90
2018-04-28T11:44:20.641Z,4.13
2018-04-28T11:46:48.324Z,2.90
2018-04-28T11:49:16.054Z,3.87
2018-04-28T11:51:43.711Z,3.30
2018-04-28T11:54:11.911Z,3.07
2018-04-28T11:56:39.614Z,3.83
2018-04-28T11:59:21.794Z,3.97
2018-04-28T12:02:02.447Z,3.30
2018-04-28T12:04:30.129Z,4.50
2018-04-28T12:09:44.618Z,4.50
2018-04-28T12:12:12.172Z,3.77
2018-04-28T12:14:39.693Z,4.03
2018-04-28T12:17:07.215Z,3.73
2018-04-28T12:19:34.755Z,3.40
2018-04-28T12:22:02.262Z,3.37
2018-04-28T12:24:29.830Z,3.40
2018-04-28T12:26:57.393Z,3.30
2018-04-28T12:29:24.942Z,3.80
2018-04-28T12:31:52.485Z,3.20
2018-04-28T12:34:20.048Z,2.90
2018-04-28T12:36:47.606Z,4.00
2018-04-28T12:39:15.141Z,3.73
2018-04-28T12:41:42.677Z,3.50
2018-04-28T12:44:10.319Z,3.50
2018-04-28T12:46:38.326Z,3.50
2018-04-28T12:49:05.920Z,3.40
2018-04-28T12:51:33.515Z,3.30
2018-04-28T12:54:01.165Z,3.53
2018-04-28T12:56:29.961Z,3.83
2018-04-28T12:58:57.493Z,3.23
2018-04-28T13:01:25.224Z,3.70
2018-04-28T13:03:52.756Z,3.27
2018-04-28T13:06:20.283Z,3.50
2018-04-28T13:08:47.801Z,2.53
2018-04-28T13:11:16.348Z,3.50
2018-04-28T13:13:44.722Z,3.00
2018-04-28T13:16:12.277Z,3.80
2018-04-28T13:18:39.827Z,3.80
2018-04-28T13:21:07.346Z,3.67
2018-04-28T13:23:34.960Z,3.20
2018-04-28T13:26:02.497Z,3.60
2018-04-28T13:28:29.993Z,3.93
2018-04-28T13:30:57.513Z,3.70
2018-04-28T13:33:25.109Z,3.87
2018-04-28T13:35:52.621Z,3.33
2018-04-28T13:38:20.134Z,4.60
2018-04-28T13:40:47.656Z,3.87
2018-04-28T13:43:15.221Z,4.60
2018-04-28T13:45:43.375Z,4.10
2018-04-28T13:48:25.644Z,3.47
2018-04-28T13:50:53.214Z,4.77
2018-04-28T13:53:20.777Z,5.07
2018-04-28T13:55:48.322Z,3.97
2018-04-28T13:58:15.869Z,3.97
2018-04-28T14:00:43.763Z,3.93
2018-04-28T14:03:12.374Z,3.87
2018-04-28T14:05:40.320Z,3.80
2018-04-28T14:08:10.171Z,4.63
2018-04-28T14:10:37.789Z,5.43
2018-04-28T14:13:05.301Z,5.37
2018-04-28T14:15:32.909Z,5.33
2018-04-28T14:18:00.500Z,4.60
2018-04-28T14:20:30.101Z,4.93
2018-04-28T14:22:57.595Z,4.90
2018-04-28T14:25:25.111Z,5.40
2018-04-28T14:27:52.625Z,5.17
2018-04-28T14:30:20.137Z,4.93
2018-04-28T14:32:47.681Z,4.80
2018-04-28T14:35:15.209Z,5.63
2018-04-28T14:37:42.805Z,5.73
2018-04-28T14:40:10.369Z,5.70
2018-04-28T14:42:41.831Z,4.80
2018-04-28T14:47:47.136Z,5.93
2018-04-28T14:50:14.732Z,5.47
2018-04-28T14:52:43.811Z,5.63
2018-04-28T14:55:11.372Z,6.00
2018-04-28T14:57:38.944Z,5.17
2018-04-28T15:00:06.528Z,5.00
2018-04-28T15:02:34.150Z,6.93
2018-04-28T15:05:01.753Z,6.47
2018-04-28T15:07:29.393Z,5.67
2018-04-28T15:09:57.108Z,5.27
2018-04-28T15:12:24.537Z,5.80
2018-04-28T15:14:52.061Z,5.47
2018-04-28T15:17:19.568Z,5.80
2018-04-28T15:19:47.094Z,5.80
2018-04-28T15:25:04.533Z,5.20
2018-04-28T15:27:32.657Z,5.13
2018-04-28T15:30:00.209Z,5.20
2018-04-28T15:32:27.743Z,5.17
2018-04-28T15:34:55.355Z,5.43
2018-04-28T15:37:22.952Z,5.63
2018-04-28T15:39:50.559Z,6.70
2018-04-28T15:42:18.140Z,5.20
2018-04-28T15:44:45.739Z,5.53
2018-04-28T15:47:13.338Z,6.80
2018-04-28T15:49:40.893Z,5.10
2018-04-28T15:52:08.537Z,6.03
2018-04-28T15:54:36.109Z,5.70
2018-04-28T15:57:03.624Z,5.93
2018-04-28T15:59:31.182Z,5.50
2018-04-28T16:01:58.777Z,6.13
2018-04-28T16:04:26.364Z,5.90
2018-04-28T16:06:53.933Z,5.90
2018-04-28T16:09:21.517Z,6.00
2018-04-28T16:11:49.695Z,5.50
2018-04-28T16:14:17.300Z,5.43
2018-04-28T16:16:44.845Z,6.17
2018-04-28T16:19:12.442Z,5.80
2018-04-28T16:21:39.975Z,6.07
2018-04-28T16:24:07.533Z,5.23
2018-04-28T16:26:35.132Z,6.30
2018-04-28T16:29:02.710Z,6.40
2018-04-28T16:31:30.364Z,5.50
2018-04-28T16:33:58.021Z,5.30
2018-04-28T16:36:25.659Z,6.00
2018-04-28T16:38:53.272Z,4.37
2018-04-28T16:41:20.804Z,5.07
2018-04-28T16:43:48.349Z,6.70
2018-04-28T16:46:15.941Z,5.63
2018-04-28T16:48:43.522Z,6.30
2018-04-28T16:51:11.163Z,6.03
2018-04-28T16:53:38.755Z,5.40
2018-04-28T16:56:06.352Z,5.60
2018-04-28T16:58:33.908Z,5.57
2018-04-28T17:01:01.416Z,5.27
2018-04-28T17:03:28.938Z,5.73
2018-04-28T17:05:56.457Z,5.53
2018-04-28T17:08:23.975Z,5.27
2018-04-28T17:10:51.548Z,6.40
2018-04-28T17:13:19.049Z,4.77
2018-04-28T17:15:46.581Z,5.30
2018-04-28T17:18:14.152Z,5.20
2018-04-28T17:20:41.678Z,5.77
2018-04-28T17:23:09.250Z,5.20
2018-04-28T17:25:36.714Z,5.13
2018-04-28T17:28:04.232Z,5.70
2018-04-28T17:30:31.788Z,5.90
2018-04-28T17:32:59.317Z,6.47
2018-04-28T17:35:26.905Z,6.33
2018-04-28T17:37:54.440Z,6.90
2018-04-28T17:40:21.965Z,5.90
2018-04-28T17:42:49.492Z,6.53
2018-04-28T17:45:17.040Z,6.07
2018-04-28T17:50:18.517Z,6.30
2018-04-28T17:52:46.200Z,5.77
2018-04-28T17:55:13.824Z,6.33
2018-04-28T17:57:41.532Z,6.33
2018-04-28T18:00:09.256Z,6.23
2018-04-28T18:02:40.350Z,7.33
2018-04-28T18:05:07.934Z,6.20
2018-04-28T18:10:09.493Z,6.80
2018-04-28T18:12:36.992Z,5.87
2018-04-28T18:15:04.495Z,6.93
2018-04-28T18:17:32.886Z,6.13
2018-04-28T18:22:34.112Z,5.70
2018-04-28T18:25:01.704Z,6.53
2018-04-28T18:27:29.268Z,6.93
2018-04-28T18:29:56.839Z,8.10
2018-04-28T18:32:24.420Z,6.33
2018-04-28T18:34:51.935Z,6.23
2018-04-28T18:37:19.426Z,6.80
2018-04-28T18:39:46.957Z,6.70
2018-04-28T18:42:14.507Z,6.87
2018-04-28T18:44:42.060Z,7.30
2018-04-28T18:47:09.617Z,7.03
2018-04-28T18:49:37.187Z,5.97
2018-04-28T18:52:04.729Z,6.00
2018-04-28T18:54:32.218Z,6.27
2018-04-28T18:56:59.768Z,6.37
2018-04-28T18:59:27.292Z,7.20
2018-04-28T19:01:54.811Z,7.63
2018-04-28T19:04:22.329Z,7.00
2018-04-28T19:06:49.849Z,6.43
2018-04-28T19:09:17.453Z,7.23
2018-04-28T19:11:44.991Z,7.53
2018-04-28T19:14:12.525Z,6.80
2018-04-28T19:16:40.050Z,6.67
2018-04-28T19:19:07.685Z,7.27
2018-04-28T19:21:35.234Z,6.90
2018-04-28T19:24:02.784Z,6.53
2018-04-28T19:26:30.419Z,6.30
2018-04-28T19:28:57.957Z,7.03
2018-04-28T19:31:25.486Z,6.20
2018-04-28T19:33:53.037Z,7.83
2018-04-28T19:36:20.599Z,6.10
2018-04-28T19:38:48.175Z,7.77
2018-04-28T19:41:15.720Z,7.53
2018-04-28T19:43:43.307Z,10.00
2018-04-28T19:46:10.828Z,8.93
2018-04-28T19:48:38.435Z,9.20
2018-04-28T19:51:05.934Z,9.10
2018-04-28T19:53:33.448Z,9.83
2018-04-28T19:56:01.015Z,8.30
2018-04-28T19:58:28.533Z,8.13
2018-04-28T20:00:56.052Z,7.63
2018-04-28T20:03:48.425Z,6.77
2018-04-28T20:06:15.995Z,6.63
2018-04-28T20:08:43.609Z,7.70
2018-04-28T20:11:11.265Z,7.20
2018-04-28T20:13:38.892Z,6.50
2018-04-28T20:16:06.465Z,7.40
2018-04-28T20:18:34.063Z,6.83
2018-04-28T20:21:01.637Z,7.90
2018-04-28T20:23:40.969Z,8.73
2018-04-28T20:26:08.638Z,8.63
2018-04-28T20:28:36.290Z,7.10
2018-04-28T20:31:03.867Z,6.43
2018-04-28T20:33:31.387Z,7.90
2018-04-28T20:35:58.970Z,7.27
2018-04-28T20:38:26.600Z,8.17
2018-04-28T20:40:54.263Z,7.03
2018-04-28T20:43:21.769Z,7.70
2018-04-28T20:45:49.329Z,8.93
2018-04-28T20:48:16.972Z,9.47
2018-04-28T20:50:44.532Z,9.30
2018-04-28T20:53:12.078Z,8.00
2018-04-28T20:55:39.598Z,6.70
2018-04-28T20:58:07.153Z,7.37
2018-04-28T21:00:34.686Z,7.47
2018-04-28T21:03:02.260Z,6.97
2018-04-28T21:05:29.899Z,7.43
2018-04-28T21:07:57.407Z,7.93
2018-04-28T21:10:24.935Z,8.20
2018-04-28T21:12:52.464Z,9.70
2018-04-28T21:15:19.978Z,9.13
2018-04-28T21:17:47.486Z,8.33
2018-04-28T21:20:15.055Z,7.80
2018-04-28T21:22:42.609Z,8.07
2018-04-28T21:25:10.209Z,8.23
2018-04-28T21:27:37.873Z,8.90
2018-04-28T21:30:05.397Z,8.70
2018-04-28T21:32:32.909Z,8.40
2018-04-28T21:35:00.437Z,7.20
2018-04-28T21:37:28.046Z,6.97
2018-04-28T21:39:55.561Z,7.10
2018-04-28T21:42:23.122Z,8.93
2018-04-28T21:44:50.669Z,8.90
2018-04-28T21:47:18.185Z,7.73
2018-04-28T21:49:45.766Z,7.13
2018-04-28T21:52:13.444Z,7.47
2018-04-28T21:54:40.993Z,8.17
2018-04-28T21:57:08.513Z,6.77
2018-04-28T21:59:36.038Z,7.50
2018-04-28T22:02:03.558Z,7.83
2018-04-28T22:04:31.085Z,7.43
2018-04-28T22:06:58.674Z,7.40
2018-04-28T22:09:26.179Z,8.40
2018-04-28T22:11:53.681Z,8.47
2018-04-28T22:14:21.230Z,7.60
2018-04-28T22:16:48.744Z,6.97
2018-04-28T22:19:16.251Z,7.20
2018-04-28T22:21:43.815Z,8.20
2018-04-28T22:24:11.324Z,7.40
2018-04-28T22:26:38.803Z,6.33
2018-04-28T22:29:06.325Z,7.20
2018-04-28T22:31:33.862Z,9.27
2018-04-28T22:34:01.421Z,8.27
2018-04-28T22:36:28.980Z,8.13
2018-04-28T22:41:30.331Z,8.40
2018-04-28T22:43:57.826Z,7.70
2018-04-28T22:46:25.324Z,7.67
2018-04-28T22:48:52.880Z,6.97
2018-04-28T22:51:20.396Z,7.93
2018-04-28T22:53:47.920Z,6.73
2018-04-28T22:56:15.489Z,8.57
2018-04-28T22:58:43.066Z,7.93
2018-04-28T23:01:10.589Z,7.77
2018-04-28T23:03:38.132Z,6.93
2018-04-28T23:06:05.648Z,7.83
2018-04-28T23:08:33.215Z,8.30
2018-04-28T23:11:00.756Z,7.60
2018-04-28T23:13:28.279Z,7.63
2018-04-28T23:15:55.810Z,7.13
2018-04-28T23:18:23.345Z,6.67
2018-04-28T23:20:50.890Z,9.00
2018-04-28T23:23:18.425Z,7.87
2018-04-28T23:25:45.957Z,7.30
2018-04-28T23:28:13.473Z,9.03
2018-04-28T23:30:40.972Z,6.03
2018-04-28T23:33:08.561Z,6.43
2018-04-28T23:35:36.066Z,7.47
2018-04-28T23:38:03.570Z,6.90
2018-04-28T23:40:31.109Z,6.50
2018-04-28T23:42:58.624Z,6.63
2018-04-28T23:45:26.131Z,7.33
2018-04-28T23:47:53.649Z,7.00
2018-04-28T23:50:21.168Z,6.67
2018-04-28T23:52:48.745Z,6.30
2018-04-28T23:55:16.319Z,5.97
2018-04-28T23:57:43.884Z,8.00
